Time;durP1;ratioP1;P1;durP2;ratioP2;P2;SDS_P1;SDS_P2;PMS_P1;PMS_P2;Temp;Humidity;BMP_temperature;BMP_pressure;BME280_temperature;BME280_humidity;BME280_pressure;Samples;Min_cycle;Max_cycle;Signal;HPM_P1;HPM_P2
2023/07/31 00:00:29;;;;;;;3.35;1.40;;;18.30;79.70;;;;;;5054304;28;20033;-67
2023/07/31 00:02:54;;;;;;;2.45;1.15;;;18.30;79.80;;;;;;5053026;28;20037;-67
2023/07/31 00:05:21;;;;;;;2.78;1.30;;;18.30;79.70;;;;;;5053085;28;20049;-67
2023/07/31 00:07:46;;;;;;;3.35;1.35;;;18.30;79.60;;;;;;5054956;28;20017;-67
2023/07/31 00:10:12;;;;;;;2.35;1.05;;;18.30;79.60;;;;;;5047855;28;20067;-67
2023/07/31 00:12:39;;;;;;;3.38;1.33;;;18.30;79.80;;;;;;5053361;28;20318;-67
2023/07/31 00:15:06;;;;;;;4.07;1.50;;;18.30;79.80;;;;;;5053812;28;20449;-67
2023/07/31 00:17:32;;;;;;;2.92;1.30;;;18.30;79.80;;;;;;5047630;28;20426;-67
2023/07/31 00:19:58;;;;;;;3.58;1.55;;;18.30;79.90;;;;;;5051172;28;20032;-67
2023/07/31 00:22:23;;;;;;;3.17;1.38;;;18.30;79.90;;;;;;5052501;28;20028;-67
2023/07/31 00:24:49;;;;;;;2.85;1.30;;;18.30;80.00;;;;;;5049764;28;20450;-67
2023/07/31 00:27:15;;;;;;;3.28;1.40;;;18.30;80.00;;;;;;5041520;28;20021;-67
2023/07/31 00:29:41;;;;;;;2.22;1.20;;;18.30;80.00;;;;;;5035752;28;20373;-67
2023/07/31 00:32:07;;;;;;;4.07;1.50;;;18.30;80.10;;;;;;5052885;28;20017;-67
2023/07/31 00:34:33;;;;;;;4.03;1.80;;;18.30;80.20;;;;;;5052328;28;20032;-67
2023/07/31 00:36:58;;;;;;;3.35;1.70;;;18.30;80.20;;;;;;5044891;28;20024;-67
2023/07/31 00:39:24;;;;;;;2.90;1.42;;;18.30;80.30;;;;;;5046535;28;20065;-67
2023/07/31 00:41:50;;;;;;;3.90;1.80;;;18.30;80.40;;;;;;5050533;28;20108;-67
2023/07/31 00:44:17;;;;;;;4.38;1.77;;;18.40;80.50;;;;;;5049419;28;20404;-67
2023/07/31 00:46:42;;;;;;;3.50;1.75;;;18.40;80.50;;;;;;5053603;28;20025;-67
2023/07/31 00:49:09;;;;;;;7.20;2.58;;;18.40;80.60;;;;;;5054434;28;20040;-67
2023/07/31 00:51:35;;;;;;;5.57;2.00;;;18.40;80.70;;;;;;5053493;28;20342;-67
2023/07/31 00:54:01;;;;;;;6.90;2.75;;;18.40;80.80;;;;;;5051384;28;20029;-67
2023/07/31 00:56:28;;;;;;;6.72;3.17;;;18.40;80.90;;;;;;5052938;28;20094;-67
2023/07/31 00:58:55;;;;;;;8.82;3.67;;;18.50;81.00;;;;;;5053410;28;20408;-67
2023/07/31 01:01:21;;;;;;;10.40;3.83;;;18.50;81.10;;;;;;5053648;28;20032;-67
2023/07/31 01:03:48;;;;;;;10.73;3.95;;;18.50;81.20;;;;;;5047636;28;20067;-67
2023/07/31 01:06:30;;;;;;;11.45;4.93;;;18.50;81.30;;;;;;5051295;28;20104;-67
2023/07/31 01:09:02;;;;;;;12.18;5.65;;;18.50;81.40;;;;;;5046340;28;20056;-67
2023/07/31 01:11:42;;;;;;;11.38;5.40;;;18.50;81.70;;;;;;5047580;28;20359;-67
2023/07/31 01:14:08;;;;;;;13.15;5.22;;;18.50;81.80;;;;;;5030992;28;20051;-67
2023/07/31 01:16:35;;;;;;;19.38;7.15;;;18.50;81.80;;;;;;5052157;28;20083;-67
2023/07/31 01:19:00;;;;;;;14.18;6.80;;;18.50;81.90;;;;;;5052536;28;20404;-67
2023/07/31 01:22:02;;;;;;;18.98;7.30;;;18.60;82.10;;;;;;5052256;28;20025;-67
2023/07/31 01:24:47;;;;;;;;;;;18.60;82.20;;;;;;5020046;28;20045;-67
2023/07/31 01:27:20;;;;;;;13.27;6.45;;;18.60;81.90;;;;;;5043524;28;19909;-67
2023/07/31 01:29:48;;;;;;;15.52;6.82;;;18.60;81.90;;;;;;5043745;28;20086;-67
2023/07/31 01:32:16;;;;;;;17.15;7.72;;;18.70;82.10;;;;;;5046478;28;20121;-67
2023/07/31 01:34:42;;;;;;;16.20;7.40;;;18.70;82.10;;;;;;5049949;28;20035;-67
2023/07/31 01:37:08;;;;;;;13.50;6.20;;;18.60;82.20;;;;;;5044793;28;20505;-67
2023/07/31 01:39:34;;;;;;;15.05;7.03;;;18.70;82.30;;;;;;5037989;28;20025;-67
2023/07/31 01:41:59;;;;;;;18.88;7.38;;;18.70;82.40;;;;;;5043398;28;20017;-67
2023/07/31 01:44:25;;;;;;;15.68;6.93;;;18.70;82.50;;;;;;5049619;28;20358;-67
2023/07/31 01:46:51;;;;;;;15.02;7.07;;;18.70;82.50;;;;;;5048646;28;20103;-67
2023/07/31 01:49:17;;;;;;;19.48;7.78;;;18.70;82.50;;;;;;5044901;28;20029;-67
2023/07/31 01:51:42;;;;;;;18.95;8.02;;;18.80;82.60;;;;;;5049586;28;20032;-67
2023/07/31 01:54:08;;;;;;;14.68;6.80;;;18.80;82.60;;;;;;5050233;28;20028;-67
2023/07/31 01:56:34;;;;;;;17.10;6.97;;;18.80;82.70;;;;;;5046562;28;20372;-67
2023/07/31 01:58:59;;;;;;;16.90;6.80;;;18.70;82.60;;;;;;5035172;28;20020;-67
2023/07/31 02:01:25;;;;;;;13.50;7.15;;;18.80;82.60;;;;;;5051156;28;20025;-68
2023/07/31 02:03:51;;;;;;;16.77;7.55;;;18.80;82.70;;;;;;5035256;28;20013;-67
2023/07/31 02:06:17;;;;;;;16.05;6.60;;;18.70;82.60;;;;;;5053009;28;20029;-67
2023/07/31 02:08:43;;;;;;;18.00;8.18;;;18.70;82.70;;;;;;5043722;28;20038;-67
2023/07/31 02:11:08;;;;;;;14.90;6.43;;;18.70;82.70;;;;;;5044681;28;20028;-67
2023/07/31 02:13:34;;;;;;;16.38;6.60;;;18.70;82.70;;;;;;5057142;28;20124;-68
2023/07/31 02:16:01;;;;;;;11.88;6.40;;;18.70;82.70;;;;;;5036629;28;20116;-67
2023/07/31 02:18:26;;;;;;;16.67;7.38;;;18.70;82.70;;;;;;5039416;28;20049;-67
2023/07/31 02:20:52;;;;;;;14.93;6.45;;;18.70;82.80;;;;;;5055040;28;20063;-67
2023/07/31 02:23:19;;;;;;;17.17;7.30;;;18.70;82.90;;;;;;5054909;28;20029;-67
2023/07/31 02:25:45;;;;;;;14.50;6.30;;;18.70;83.00;;;;;;5055950;28;20053;-68
2023/07/31 02:28:11;;;;;;;16.92;7.18;;;18.60;82.90;;;;;;5056239;28;20461;-67
2023/07/31 02:30:37;;;;;;;15.98;6.70;;;18.60;83.00;;;;;;5053376;28;20029;-67
2023/07/31 02:33:04;;;;;;;15.65;5.82;;;18.60;83.00;;;;;;5039565;28;20450;-67
2023/07/31 02:35:30;;;;;;;13.30;7.10;;;18.60;83.00;;;;;;5055857;28;20465;-67
2023/07/31 02:37:56;;;;;;;17.80;6.72;;;18.60;83.00;;;;;;5055822;28;20029;-67
2023/07/31 02:40:22;;;;;;;16.85;6.60;;;18.60;83.00;;;;;;5055694;28;20021;-67
2023/07/31 02:42:47;;;;;;;13.30;5.95;;;18.60;83.10;;;;;;5045989;28;20025;-67
2023/07/31 02:45:13;;;;;;;15.27;5.78;;;18.60;83.10;;;;;;5043718;28;20017;-67
2023/07/31 02:47:39;;;;;;;16.15;6.55;;;18.60;83.20;;;;;;5057012;28;20158;-67
2023/07/31 02:50:05;;;;;;;13.52;5.30;;;18.60;83.30;;;;;;5055529;28;20437;-67
2023/07/31 02:52:31;;;;;;;14.60;5.55;;;18.60;84.00;;;;;;5052285;28;20310;-67
2023/07/31 02:54:57;;;;;;;15.48;6.07;;;18.60;83.40;;;;;;5056091;28;20021;-67
2023/07/31 02:57:23;;;;;;;14.55;5.75;;;18.60;83.40;;;;;;5040011;28;20033;-67
2023/07/31 02:59:49;;;;;;;13.10;6.05;;;18.60;83.70;;;;;;5050751;28;20029;-67
2023/07/31 03:02:15;;;;;;;15.60;6.25;;;18.60;83.40;;;;;;5061827;28;20025;-67
2023/07/31 03:04:41;;;;;;;13.23;5.78;;;18.60;83.40;;;;;;5046166;28;20060;-67
2023/07/31 03:07:06;;;;;;;14.63;6.03;;;18.60;83.40;;;;;;5045201;28;20415;-67
2023/07/31 03:09:32;;;;;;;14.82;5.60;;;18.60;83.40;;;;;;5055002;28;20051;-67
2023/07/31 03:11:58;;;;;;;14.07;6.05;;;18.60;83.40;;;;;;5046780;28;20052;-67
2023/07/31 03:14:26;;;;;;;14.68;5.85;;;18.60;83.30;;;;;;5035756;28;20033;-67
2023/07/31 03:16:52;;;;;;;14.80;5.80;;;18.60;83.30;;;;;;5055699;28;20028;-67
2023/07/31 03:19:18;;;;;;;19.17;7.18;;;18.60;83.30;;;;;;5052275;28;20398;-67
2023/07/31 03:21:43;;;;;;;15.65;6.93;;;18.60;83.30;;;;;;5052997;28;20029;-67
2023/07/31 03:24:09;;;;;;;16.80;5.57;;;18.60;83.30;;;;;;5045208;28;20053;-67
2023/07/31 03:26:36;;;;;;;13.07;6.55;;;18.60;83.20;;;;;;5069719;28;20066;-67
2023/07/31 03:29:02;;;;;;;17.27;6.72;;;18.60;83.20;;;;;;5054630;28;20477;-67
2023/07/31 03:31:28;;;;;;;13.35;5.97;;;18.60;83.10;;;;;;5037862;28;20136;-67
2023/07/31 03:33:54;;;;;;;14.02;6.38;;;18.60;83.10;;;;;;5051448;28;20490;-67
2023/07/31 03:36:20;;;;;;;14.32;6.13;;;18.60;83.10;;;;;;5053325;28;20040;-67
2023/07/31 03:38:46;;;;;;;14.73;6.75;;;18.60;83.10;;;;;;5055500;28;20033;-67
2023/07/31 03:41:12;;;;;;;16.38;6.35;;;18.60;83.80;;;;;;5046144;28;20032;-67
2023/07/31 03:43:38;;;;;;;13.13;6.47;;;18.60;83.10;;;;;;5055650;28;20029;-67
2023/07/31 03:46:04;;;;;;;15.00;6.43;;;18.60;83.00;;;;;;5050185;28;20017;-67
2023/07/31 03:48:30;;;;;;;16.27;5.95;;;18.50;83.00;;;;;;5055110;28;20051;-67
2023/07/31 03:50:56;;;;;;;14.73;5.55;;;18.50;83.00;;;;;;5049405;28;20033;-67
2023/07/31 03:53:22;;;;;;;15.77;6.50;;;18.50;82.90;;;;;;5042572;28;20037;-67
2023/07/31 03:55:47;;;;;;;12.75;5.70;;;18.50;82.90;;;;;;5044238;28;20033;-67
2023/07/31 03:58:13;;;;;;;13.55;6.38;;;18.50;82.90;;;;;;5052314;28;20047;-68
2023/07/31 04:00:40;;;;;;;16.02;6.53;;;18.50;82.80;;;;;;5051474;28;20329;-67
2023/07/31 04:03:06;;;;;;;14.63;5.85;;;18.50;82.70;;;;;;5052628;28;20025;-67
2023/07/31 04:05:32;;;;;;;15.10;5.80;;;18.50;82.70;;;;;;5049057;28;20033;-67
2023/07/31 04:07:58;;;;;;;14.68;5.70;;;18.50;82.60;;;;;;5066999;28;20506;-67
2023/07/31 04:10:24;;;;;;;14.95;6.63;;;18.50;82.60;;;;;;5055411;28;20049;-67
2023/07/31 04:12:50;;;;;;;12.30;5.63;;;18.50;82.50;;;;;;5052992;28;20028;-66
2023/07/31 04:15:15;;;;;;;12.70;5.88;;;18.50;82.50;;;;;;5050088;28;20454;-67
2023/07/31 04:17:41;;;;;;;17.25;6.63;;;18.50;82.40;;;;;;5052861;28;20090;-67
2023/07/31 04:20:08;;;;;;;14.82;6.28;;;18.50;82.30;;;;;;5054097;28;20437;-67
2023/07/31 04:22:33;;;;;;;14.82;6.20;;;18.50;82.40;;;;;;5049802;28;20068;-67
2023/07/31 04:24:59;;;;;;;15.68;5.93;;;18.50;82.30;;;;;;5049451;28;20045;-67
2023/07/31 04:27:25;;;;;;;16.98;6.57;;;18.50;82.30;;;;;;5046491;28;20028;-68
2023/07/31 04:29:51;;;;;;;14.43;5.80;;;18.50;82.30;;;;;;5046518;28;20040;-66
2023/07/31 04:32:17;;;;;;;16.48;6.80;;;18.50;82.20;;;;;;5054371;28;20033;-67
2023/07/31 04:34:43;;;;;;;15.43;6.18;;;18.50;82.20;;;;;;5066462;28;20040;-67
2023/07/31 04:37:09;;;;;;;16.00;6.40;;;18.50;82.20;;;;;;5055432;28;20354;-67
2023/07/31 04:39:34;;;;;;;13.27;5.90;;;18.50;82.20;;;;;;5055488;28;20029;-67
2023/07/31 04:42:00;;;;;;;11.50;5.65;;;18.50;82.20;;;;;;5037504;28;20035;-67
2023/07/31 04:44:26;;;;;;;14.82;5.35;;;18.50;82.10;;;;;;5051903;28;20056;-67
2023/07/31 04:46:52;;;;;;;12.30;6.13;;;18.50;82.00;;;;;;5054320;28;20025;-67
2023/07/31 04:49:19;;;;;;;14.50;6.47;;;18.50;81.90;;;;;;5048046;28;20045;-67
2023/07/31 04:51:44;;;;;;;15.15;5.38;;;18.50;81.80;;;;;;5059571;28;20505;-67
2023/07/31 04:54:12;;;;;;;13.68;5.75;;;18.50;81.80;;;;;;5054408;28;20115;-67
2023/07/31 04:56:38;;;;;;;13.27;5.88;;;18.50;81.70;;;;;;5054804;28;20083;-67
2023/07/31 04:59:04;;;;;;;12.77;5.47;;;18.50;81.60;;;;;;5054672;28;20438;-67
2023/07/31 05:01:29;;;;;;;16.35;6.03;;;18.60;81.70;;;;;;5052362;28;20032;-67
2023/07/31 05:03:55;;;;;;;11.57;5.60;;;18.60;81.60;;;;;;5051003;28;20017;-67
2023/07/31 05:06:21;;;;;;;13.93;6.15;;;18.60;81.60;;;;;;5047203;28;20520;-67
2023/07/31 05:08:47;;;;;;;13.48;6.15;;;18.50;82.20;;;;;;5044576;28;20366;-68
2023/07/31 05:11:12;;;;;;;14.27;5.63;;;18.60;81.60;;;;;;5046183;28;20466;-67
2023/07/31 05:13:38;;;;;;;15.50;6.35;;;18.60;81.50;;;;;;5049247;28;20056;-67
2023/07/31 05:16:04;;;;;;;13.18;5.82;;;18.60;81.50;;;;;;5049355;28;20025;-67
2023/07/31 05:18:30;;;;;;;16.23;6.45;;;18.60;81.50;;;;;;5046922;28;20029;-67
2023/07/31 05:20:55;;;;;;;11.45;5.20;;;18.60;81.40;;;;;;5049984;28;20056;-68
2023/07/31 05:23:21;;;;;;;11.95;5.65;;;18.60;81.50;;;;;;5046023;28;20331;-67
2023/07/31 05:25:47;;;;;;;11.88;5.75;;;18.60;81.40;;;;;;5047862;28;20032;-68
2023/07/31 05:28:13;;;;;;;12.15;4.97;;;18.60;81.30;;;;;;5043361;28;20056;-68
2023/07/31 05:30:38;;;;;;;13.57;5.53;;;18.60;81.20;;;;;;5050279;28;20021;-67
2023/07/31 05:33:04;;;;;;;13.60;5.18;;;18.70;81.20;;;;;;5045266;28;20028;-67
2023/07/31 05:35:30;;;;;;;12.88;5.15;;;18.60;81.10;;;;;;5041326;28;20134;-68
2023/07/31 05:37:56;;;;;;;16.15;5.20;;;18.60;81.20;;;;;;5032298;28;20029;-67
2023/07/31 05:40:21;;;;;;;14.07;5.22;;;18.60;81.20;;;;;;5048928;28;20031;-68
2023/07/31 05:42:47;;;;;;;12.18;4.90;;;18.60;81.20;;;;;;5047719;28;20545;-68
2023/07/31 05:45:13;;;;;;;14.73;6.28;;;18.60;81.30;;;;;;5046089;28;20111;-67
2023/07/31 05:47:39;;;;;;;13.15;5.68;;;18.60;81.40;;;;;;5047929;28;20063;-67
2023/07/31 05:50:05;;;;;;;13.80;5.75;;;18.60;81.70;;;;;;5048150;28;20147;-68
2023/07/31 05:52:31;;;;;;;12.70;4.97;;;18.50;81.70;;;;;;5027467;28;20029;-65
2023/07/31 05:54:57;;;;;;;13.70;5.20;;;18.50;81.90;;;;;;5056581;28;20103;-68
2023/07/31 05:57:23;;;;;;;12.38;5.13;;;18.50;82.00;;;;;;5044314;28;20025;-67
2023/07/31 05:59:48;;;;;;;16.20;5.30;;;18.50;82.10;;;;;;5047503;28;20043;-68
2023/07/31 06:02:14;;;;;;;12.70;5.30;;;18.50;82.30;;;;;;5044169;28;20029;-67
2023/07/31 06:04:40;;;;;;;12.63;5.25;;;18.50;82.30;;;;;;5048800;28;20032;-67
2023/07/31 06:07:06;;;;;;;10.70;4.80;;;18.50;82.40;;;;;;5048232;28;20029;-67
2023/07/31 06:09:32;;;;;;;10.50;4.63;;;18.50;82.40;;;;;;5047585;28;20069;-67
2023/07/31 06:11:58;;;;;;;10.10;4.40;;;18.50;82.50;;;;;;5045205;28;20036;-67
2023/07/31 06:14:23;;;;;;;10.02;4.22;;;18.50;82.60;;;;;;5059346;28;20021;-67
2023/07/31 06:16:49;;;;;;;10.85;5.03;;;18.50;82.70;;;;;;5045990;28;20070;-67
2023/07/31 06:19:15;;;;;;;11.75;4.25;;;18.50;82.80;;;;;;5045082;28;20060;-68
2023/07/31 06:21:43;;;;;;;11.40;5.15;;;18.50;82.80;;;;;;5030017;28;21337;-67
2023/07/31 06:24:08;;;;;;;11.90;4.95;;;18.60;82.90;;;;;;5053066;28;20029;-68
2023/07/31 06:26:34;;;;;;;9.32;4.47;;;18.60;82.90;;;;;;5049601;28;20033;-67
2023/07/31 06:29:00;;;;;;;8.75;4.03;;;18.60;82.90;;;;;;5027646;28;20036;-67
2023/07/31 06:31:26;;;;;;;9.55;3.97;;;18.60;82.90;;;;;;5047413;28;20037;-67
2023/07/31 06:33:52;;;;;;;7.93;3.72;;;18.60;82.90;;;;;;5029843;28;20037;-67
2023/07/31 06:36:18;;;;;;;9.27;4.35;;;18.60;83.00;;;;;;5046816;28;20037;-68
2023/07/31 06:38:44;;;;;;;8.80;4.18;;;18.70;83.10;;;;;;5039963;28;20060;-65
2023/07/31 06:41:10;;;;;;;8.95;4.05;;;18.60;83.10;;;;;;5046017;28;20497;-66
2023/07/31 06:43:36;;;;;;;10.85;4.30;;;18.70;83.30;;;;;;5039915;28;20052;-66
2023/07/31 06:46:09;;;;;;;9.98;4.15;;;18.70;83.30;;;;;;5046825;28;20021;-67
2023/07/31 06:48:37;;;;;;;10.02;3.97;;;18.70;83.40;;;;;;5044308;28;20033;-68
2023/07/31 06:51:03;;;;;;;8.93;3.58;;;18.70;83.40;;;;;;5027933;28;20094;-70
2023/07/31 06:53:29;;;;;;;9.52;3.97;;;18.80;83.40;;;;;;5040288;28;20029;-68
2023/07/31 06:55:55;;;;;;;8.13;3.78;;;18.80;84.00;;;;;;5054514;28;20027;-67
2023/07/31 06:58:21;;;;;;;7.80;3.65;;;18.80;83.40;;;;;;5047951;28;20040;-68
2023/07/31 07:00:46;;;;;;;9.65;3.90;;;18.80;83.40;;;;;;5045913;28;20021;-67
2023/07/31 07:03:14;;;;;;;6.55;2.95;;;18.80;83.50;;;;;;5046019;28;20482;-69
2023/07/31 07:05:40;;;;;;;7.20;3.30;;;18.80;83.60;;;;;;5051309;28;20175;-66
2023/07/31 07:08:06;;;;;;;8.82;3.65;;;18.80;83.60;;;;;;5046730;28;20578;-65
2023/07/31 07:10:32;;;;;;;7.45;3.30;;;18.80;83.60;;;;;;5041540;28;20110;-71
2023/07/31 07:12:57;;;;;;;6.43;2.90;;;18.80;83.70;;;;;;5070082;28;20536;-70
2023/07/31 07:15:23;;;;;;;6.95;2.90;;;18.80;83.80;;;;;;5045997;28;20109;-67
2023/07/31 07:17:49;;;;;;;6.25;2.50;;;18.80;83.80;;;;;;5063734;28;20071;-64
2023/07/31 07:20:15;;;;;;;6.32;2.42;;;18.80;83.80;;;;;;5044841;28;20034;-66
2023/07/31 07:22:42;;;;;;;5.15;2.17;;;18.80;83.90;;;;;;5048398;28;20087;-65
2023/07/31 07:25:08;;;;;;;7.18;2.35;;;18.90;83.90;;;;;;5049938;28;20112;-65
2023/07/31 07:27:34;;;;;;;4.85;2.00;;;18.90;84.60;;;;;;5054283;28;20120;-65
2023/07/31 07:30:00;;;;;;;4.70;2.05;;;18.90;83.90;;;;;;5047372;28;20053;-65
2023/07/31 07:32:26;;;;;;;5.25;2.20;;;19.00;83.90;;;;;;5063382;28;20031;-65
2023/07/31 07:34:52;;;;;;;4.63;1.80;;;19.10;83.80;;;;;;5054557;28;20115;-65
2023/07/31 07:37:18;;;;;;;4.35;1.67;;;19.10;83.80;;;;;;5049565;28;20059;-66
2023/07/31 07:39:44;;;;;;;3.03;1.48;;;19.10;83.80;;;;;;5046086;28;20110;-67
2023/07/31 07:42:10;;;;;;;4.57;1.90;;;19.10;83.90;;;;;;5033158;28;20025;-67
2023/07/31 07:44:35;;;;;;;3.95;1.52;;;19.10;83.90;;;;;;5053779;28;20024;-67
2023/07/31 07:47:02;;;;;;;3.75;1.67;;;19.00;83.90;;;;;;5045601;28;20438;-67
2023/07/31 07:49:27;;;;;;;3.15;1.40;;;19.00;84.00;;;;;;5050338;28;20064;-67
2023/07/31 07:51:53;;;;;;;3.70;1.38;;;19.00;84.00;;;;;;5032393;28;20457;-67
2023/07/31 07:54:22;;;;;;;4.63;1.70;;;19.00;84.10;;;;;;5049534;28;20033;-67
2023/07/31 07:56:47;;;;;;;2.88;1.48;;;19.00;84.10;;;;;;5051035;28;20025;-67
2023/07/31 07:59:13;;;;;;;4.78;1.50;;;19.00;84.10;;;;;;5048426;28;20029;-67
2023/07/31 08:01:39;;;;;;;2.55;1.25;;;19.00;84.20;;;;;;5049279;28;20438;-67
2023/07/31 08:04:05;;;;;;;3.58;1.35;;;19.00;84.20;;;;;;5048090;28;20060;-66
2023/07/31 08:06:30;;;;;;;3.88;1.40;;;19.00;84.30;;;;;;5051189;28;20422;-66
2023/07/31 08:08:56;;;;;;;4.13;1.52;;;19.00;84.30;;;;;;5050373;28;20131;-67
2023/07/31 08:11:23;;;;;;;3.53;1.55;;;19.00;84.30;;;;;;5059158;28;20105;-67
2023/07/31 08:13:49;;;;;;;7.53;1.80;;;19.00;84.30;;;;;;5047510;28;20096;-66
2023/07/31 08:16:15;;;;;;;4.60;1.58;;;19.00;84.40;;;;;;5051241;28;20519;-67
2023/07/31 08:18:42;;;;;;;4.03;1.52;;;19.10;84.50;;;;;;5024993;28;20392;-67
2023/07/31 08:21:08;;;;;;;4.68;1.63;;;19.10;84.40;;;;;;5059367;28;20104;-67
2023/07/31 08:23:34;;;;;;;3.20;1.38;;;19.10;84.40;;;;;;5045844;28;20017;-67
2023/07/31 08:26:00;;;;;;;4.82;1.92;;;19.10;84.40;;;;;;5052764;28;20460;-67
2023/07/31 08:28:25;;;;;;;3.15;1.60;;;19.10;84.50;;;;;;5048115;28;20371;-66
2023/07/31 08:30:51;;;;;;;5.43;1.80;;;19.10;84.50;;;;;;5052216;28;20028;-67
2023/07/31 08:33:17;;;;;;;4.55;1.90;;;19.10;84.50;;;;;;5045376;28;20476;-67
2023/07/31 08:35:43;;;;;;;4.03;1.73;;;19.20;84.50;;;;;;5052919;28;20033;-67
2023/07/31 08:38:08;;;;;;;3.17;1.63;;;19.20;84.40;;;;;;5034812;28;20037;-67
2023/07/31 08:40:40;;;;;;;5.13;1.90;;;19.20;84.40;;;;;;5034039;28;20434;-67
2023/07/31 08:43:07;;;;;;;5.25;2.17;;;19.30;84.40;;;;;;5051695;28;20354;-67
2023/07/31 08:45:33;;;;;;;6.30;2.50;;;19.30;84.60;;;;;;5028853;28;20033;-67
2023/07/31 08:48:00;;;;;;;5.20;2.42;;;19.30;84.50;;;;;;5045067;28;20112;-67
2023/07/31 08:50:25;;;;;;;5.72;2.22;;;19.30;84.40;;;;;;5046706;28;20323;-67
2023/07/31 08:52:52;;;;;;;5.38;2.35;;;19.30;84.40;;;;;;5046219;28;20086;-67
2023/07/31 08:55:23;;;;;;;6.43;2.33;;;19.40;84.50;;;;;;5048355;28;20029;-67
2023/07/31 08:57:52;;;;;;;4.82;2.10;;;19.40;84.40;;;;;;5061706;28;20013;-67
2023/07/31 09:00:21;;;;;;;4.45;2.10;;;19.40;84.40;;;;;;5029402;28;20069;-67
2023/07/31 09:03:15;;;;;;;4.35;2.10;;;19.40;84.40;;;;;;5046716;28;20430;-67
2023/07/31 09:05:44;;;;;;;4.43;2.00;;;19.40;84.40;;;;;;5027801;28;20036;-67
2023/07/31 09:08:12;;;;;;;4.30;2.10;;;19.40;84.40;;;;;;5030487;28;20035;-67
2023/07/31 09:10:42;;;;;;;4.05;2.00;;;19.40;84.50;;;;;;5051020;28;20053;-67
2023/07/31 09:13:08;;;;;;;6.13;2.70;;;19.40;84.50;;;;;;5051200;28;20025;-67
2023/07/31 09:15:35;;;;;;;5.35;2.30;;;19.40;84.50;;;;;;5044681;28;20124;-67
2023/07/31 09:18:02;;;;;;;5.30;2.40;;;19.40;84.60;;;;;;5045523;28;20040;-67
2023/07/31 09:20:28;;;;;;;5.95;2.50;;;19.40;84.70;;;;;;5051555;28;20044;-67
2023/07/31 09:22:55;;;;;;;4.93;2.42;;;19.40;84.70;;;;;;5040887;28;20056;-67
2023/07/31 09:25:23;;;;;;;5.20;2.63;;;19.30;84.70;;;;;;5051354;28;20047;-67
2023/07/31 09:27:59;;;;;;;5.38;2.63;;;19.40;84.90;;;;;;5050175;28;20033;-67
2023/07/31 09:30:25;;;;;;;5.97;2.75;;;19.40;84.80;;;;;;5052001;28;20052;-67
2023/07/31 09:33:00;;;;;;;8.52;3.03;;;19.40;84.80;;;;;;5031929;28;20025;-67
2023/07/31 09:35:34;;;;;;;5.53;2.70;;;19.40;84.80;;;;;;5049735;28;20039;-67
2023/07/31 09:38:04;;;;;;;6.53;3.05;;;19.40;84.80;;;;;;5050152;28;20047;-67
2023/07/31 09:40:34;;;;;;;6.68;3.10;;;19.40;84.80;;;;;;5050262;28;20024;-67
2023/07/31 09:43:05;;;;;;;8.45;3.97;;;19.40;84.80;;;;;;5049050;28;20442;-67
2023/07/31 09:45:38;;;;;;;7.45;3.40;;;19.50;84.80;;;;;;5048224;28;20033;-67
2023/07/31 09:48:12;;;;;;;9.18;4.32;;;19.40;84.70;;;;;;5058248;28;20108;-67
2023/07/31 09:50:39;;;;;;;7.68;4.05;;;19.40;84.70;;;;;;5051234;28;20305;-67
2023/07/31 09:53:06;;;;;;;7.30;4.20;;;19.40;84.80;;;;;;5051693;28;20029;-67
2023/07/31 09:55:32;;;;;;;7.88;5.20;;;19.40;84.80;;;;;;5047765;28;20018;-67
2023/07/31 09:57:59;;;;;;;8.43;4.22;;;19.50;84.90;;;;;;5048777;28;20412;-67
2023/07/31 10:00:28;;;;;;;7.10;4.35;;;19.40;84.80;;;;;;5045193;28;20094;-66
2023/07/31 10:02:55;;;;;;;9.68;4.85;;;19.50;84.90;;;;;;5041081;28;20075;-66
2023/07/31 10:05:21;;;;;;;7.32;4.15;;;19.50;84.80;;;;;;5051651;28;20043;-66
2023/07/31 10:07:53;;;;;;;8.32;4.45;;;19.50;84.80;;;;;;5049818;28;20022;-66
2023/07/31 10:10:21;;;;;;;8.00;5.00;;;19.50;84.70;;;;;;5044132;28;20050;-66
2023/07/31 10:12:52;;;;;;;9.52;5.15;;;19.50;84.80;;;;;;5045697;28;20025;-66
2023/07/31 10:15:19;;;;;;;10.07;5.10;;;19.50;84.70;;;;;;5036837;28;20362;-66
2023/07/31 10:17:48;;;;;;;9.60;5.47;;;19.50;84.70;;;;;;5032510;28;20376;-66
2023/07/31 10:20:16;;;;;;;10.40;5.18;;;19.50;84.80;;;;;;5046226;28;20025;-66
2023/07/31 10:22:42;;;;;;;18.67;6.75;;;19.50;84.80;;;;;;5052105;28;20033;-66
2023/07/31 10:25:09;;;;;;;9.02;5.80;;;19.50;84.80;;;;;;5036179;28;20028;-65
2023/07/31 10:27:41;;;;;;;9.82;5.50;;;19.50;84.80;;;;;;5056181;28;20037;-66
2023/07/31 10:30:15;;;;;;;9.45;5.63;;;19.60;84.70;;;;;;5053779;28;20025;-66
2023/07/31 10:32:43;;;;;;;10.77;5.68;;;19.60;84.70;;;;;;5056089;28;20051;-66
2023/07/31 10:35:09;;;;;;;10.52;5.88;;;19.70;84.50;;;;;;5058387;28;20017;-66
2023/07/31 10:37:42;;;;;;;10.70;6.43;;;19.70;84.40;;;;;;5052600;28;20385;-66
2023/07/31 10:40:16;;;;;;;9.23;5.95;;;19.70;84.40;;;;;;5039057;28;20449;-66
2023/07/31 10:42:57;;;;;;;8.85;5.53;;;19.70;84.40;;;;;;5043497;28;20048;-66
2023/07/31 10:45:38;;;;;;;8.95;6.20;;;19.80;84.50;;;;;;5056517;28;20073;-66
2023/07/31 10:48:15;;;;;;;8.50;5.82;;;19.80;84.40;;;;;;5057040;28;20048;-66
2023/07/31 10:50:54;;;;;;;9.27;5.95;;;19.80;84.40;;;;;;5030971;28;20025;-66
2023/07/31 10:53:23;;;;;;;10.35;6.28;;;19.80;84.30;;;;;;5052969;28;20514;-66
2023/07/31 10:55:51;;;;;;;9.70;6.50;;;19.80;84.30;;;;;;5056133;28;20028;-66
2023/07/31 10:58:20;;;;;;;8.43;5.65;;;19.80;84.30;;;;;;5051391;28;20037;-66
2023/07/31 11:00:46;;;;;;;9.57;6.05;;;19.90;84.30;;;;;;5046604;28;20017;-66
2023/07/31 11:03:21;;;;;;;10.32;6.10;;;19.90;84.20;;;;;;5053547;28;20116;-66
2023/07/31 11:05:58;;;;;;;10.82;6.15;;;20.00;84.20;;;;;;5065311;28;20090;-65
2023/07/31 11:08:29;;;;;;;11.00;6.47;;;20.00;84.20;;;;;;5061394;28;20095;-66
2023/07/31 11:11:01;;;;;;;8.35;5.10;;;19.90;84.20;;;;;;5047930;28;20088;-66
2023/07/31 11:13:31;;;;;;;11.95;6.55;;;19.90;84.30;;;;;;5048915;28;20403;-66
2023/07/31 11:15:57;;;;;;;11.88;5.82;;;19.90;84.30;;;;;;5045959;28;20026;-66
2023/07/31 11:18:23;;;;;;;10.10;6.13;;;19.90;84.40;;;;;;5056538;28;20438;-66
2023/07/31 11:20:49;;;;;;;9.43;5.68;;;19.90;84.40;;;;;;5053768;28;20023;-65
2023/07/31 11:23:17;;;;;;;8.65;5.57;;;19.90;84.40;;;;;;5053492;28;20513;-66
2023/07/31 11:25:43;;;;;;;8.52;5.65;;;20.00;84.50;;;;;;5056929;28;20055;-66
2023/07/31 11:28:11;;;;;;;15.00;6.40;;;20.00;84.50;;;;;;5047343;28;20450;-66
2023/07/31 11:30:38;;;;;;;8.45;5.68;;;19.90;84.50;;;;;;5054891;28;20036;-65
2023/07/31 11:33:05;;;;;;;9.18;5.60;;;19.90;84.50;;;;;;5049340;28;20342;-66
2023/07/31 11:35:33;;;;;;;9.07;5.80;;;19.90;84.60;;;;;;5030455;28;20335;-66
2023/07/31 11:37:58;;;;;;;10.35;5.90;;;19.90;84.50;;;;;;5046041;28;20044;-66
2023/07/31 11:40:29;;;;;;;9.07;5.90;;;19.90;84.60;;;;;;5055067;28;20450;-66
2023/07/31 11:43:03;;;;;;;9.35;5.32;;;19.90;84.60;;;;;;5042863;28;20044;-68
2023/07/31 11:45:30;;;;;;;10.43;5.43;;;19.90;84.60;;;;;;5042404;28;20025;-66
2023/07/31 11:47:56;;;;;;;9.75;5.57;;;19.90;84.60;;;;;;5048916;28;20029;-66
2023/07/31 11:50:25;;;;;;;8.15;5.20;;;20.00;84.60;;;;;;5044035;28;20480;-66
2023/07/31 11:52:57;;;;;;;10.77;6.18;;;20.00;84.50;;;;;;5055603;28;20036;-66
2023/07/31 11:55:23;;;;;;;10.02;6.20;;;20.10;84.60;;;;;;5037441;28;20036;-66
2023/07/31 11:57:50;;;;;;;10.02;5.68;;;20.10;84.60;;;;;;5055798;28;20043;-66
2023/07/31 12:00:16;;;;;;;10.57;5.35;;;20.10;84.60;;;;;;5054566;28;20041;-66
2023/07/31 12:02:43;;;;;;;11.15;5.20;;;20.00;84.60;;;;;;5046490;28;20076;-66
2023/07/31 12:05:13;;;;;;;9.50;5.40;;;20.00;84.60;;;;;;5046595;28;20029;-66
2023/07/31 12:07:49;;;;;;;9.70;5.32;;;20.00;84.70;;;;;;5055169;28;20356;-66
2023/07/31 12:10:29;;;;;;;8.70;4.88;;;20.10;84.70;;;;;;5037355;28;20131;-66
2023/07/31 12:13:19;;;;;;;8.73;5.30;;;20.00;84.60;;;;;;5038666;28;20048;-66
2023/07/31 12:15:46;;;;;;;9.07;4.65;;;20.00;84.50;;;;;;5049596;28;20036;-66
2023/07/31 12:18:14;;;;;;;7.60;4.60;;;20.00;84.50;;;;;;5054367;28;20028;-66
2023/07/31 12:20:56;;;;;;;8.35;5.15;;;20.10;84.50;;;;;;5054731;28;20082;-66
2023/07/31 12:23:31;;;;;;;7.90;4.15;;;20.10;84.50;;;;;;5051268;28;20091;-66
2023/07/31 12:26:03;;;;;;;7.63;4.47;;;20.10;84.50;;;;;;5054664;28;20033;-66
2023/07/31 12:28:29;;;;;;;8.40;4.97;;;20.10;84.40;;;;;;5055731;28;20126;-66
2023/07/31 12:31:00;;;;;;;8.63;4.68;;;20.10;84.30;;;;;;5055907;28;20033;-66
2023/07/31 12:33:32;;;;;;;8.00;4.70;;;20.10;84.30;;;;;;5037921;28;20116;-66
2023/07/31 12:35:58;;;;;;;9.98;4.75;;;20.10;84.40;;;;;;5054140;28;20102;-66
2023/07/31 12:38:23;;;;;;;8.15;4.80;;;20.10;84.50;;;;;;5052884;28;20072;-66
2023/07/31 12:40:49;;;;;;;8.10;4.82;;;20.10;84.50;;;;;;5055675;28;20091;-67
2023/07/31 12:43:16;;;;;;;7.63;4.93;;;20.10;84.60;;;;;;5055544;28;20021;-66